Terminal Aerodrome Forecast
Issued by NWS

Home | Current Version | Previous Version | Text Only | Print | Product List | Glossary On
Versions: 1 2 3 4 5 6 7 8 9 10 11 12 13 14 15 16 17 18 19 20 21 22
000
FTUS46 KSGX 302300
TAFCRQ
TAF
KCRQ 302335Z 3100/3124 25008KT P6SM SCT200
     FM310100 VRB04KT P6SM FEW008 SCT200
     FM310900 VRB03KT P6SM BKN007
     FM311400 VRB04KT P6SM FEW009 SCT200=

USA.gov is the U.S. government's official web portal to all federal, state and local government web resources and services.